createdAt,value
2019-03-08T00:01:12.514Z,99696.00
2019-03-08T00:03:41.927Z,99702.00
2019-03-08T00:06:11.515Z,99712.00
2019-03-08T00:08:41.015Z,99718.00
2019-03-08T00:11:10.486Z,99725.00
2019-03-08T00:13:40.006Z,99718.00
2019-03-08T00:16:09.583Z,99725.00
2019-03-08T00:18:39.129Z,99730.00
2019-03-08T00:21:08.759Z,99750.00
2019-03-08T00:23:38.515Z,99736.00
2019-03-08T00:26:07.963Z,99756.00
2019-03-08T00:28:37.605Z,99756.00
2019-03-08T00:31:07.247Z,99762.00
2019-03-08T00:33:36.791Z,99768.00
2019-03-08T00:36:06.310Z,99776.00
2019-03-08T00:38:35.823Z,99782.00
2019-03-08T00:41:05.349Z,99793.00
2019-03-08T00:43:34.858Z,99781.00
2019-03-08T00:46:04.548Z,99793.00
2019-03-08T00:48:34.001Z,99800.00
2019-03-08T00:51:03.694Z,99810.00
2019-03-08T00:53:33.243Z,99811.00
2019-03-08T00:56:02.791Z,99825.00
2019-03-08T00:58:32.210Z,99820.00
2019-03-08T01:01:01.820Z,99813.00
2019-03-08T01:03:31.343Z,99830.00
2019-03-08T01:06:00.871Z,99834.00
2019-03-08T01:08:30.393Z,99837.00
2019-03-08T01:10:59.931Z,99845.00
2019-03-08T01:13:29.315Z,99853.00
2019-03-08T01:15:59.077Z,99840.00
2019-03-08T01:18:28.913Z,99838.00
2019-03-08T01:20:58.430Z,99863.00
2019-03-08T01:23:28.048Z,99863.00
2019-03-08T01:25:57.479Z,99879.00
2019-03-08T01:28:27.073Z,99872.00
2019-03-08T01:30:56.740Z,99870.00
2019-03-08T01:33:26.198Z,99891.00
2019-03-08T01:35:55.710Z,99898.00
2019-03-08T01:38:25.274Z,99908.00
2019-03-08T01:40:54.873Z,99912.00
2019-03-08T01:43:24.345Z,99918.00
2019-03-08T01:45:53.980Z,99920.00
2019-03-08T01:48:23.240Z,99920.00
2019-03-08T01:50:55.678Z,99925.00
2019-03-08T01:53:25.229Z,99928.00
2019-03-08T01:55:54.745Z,99927.00
2019-03-08T01:58:24.173Z,99933.00
2019-03-08T02:00:53.856Z,99927.00
2019-03-08T02:03:23.442Z,99929.00
2019-03-08T02:05:52.979Z,99939.00
2019-03-08T02:08:22.562Z,99929.00
2019-03-08T02:10:52.097Z,99949.00
2019-03-08T02:13:21.570Z,99939.00
2019-03-08T02:15:51.094Z,99962.00
2019-03-08T02:18:20.607Z,99968.00
2019-03-08T02:20:50.105Z,99973.00
2019-03-08T02:23:19.710Z,99984.00
2019-03-08T02:25:49.347Z,99974.00
2019-03-08T02:28:18.992Z,99980.00
2019-03-08T02:30:48.433Z,99976.00
2019-03-08T02:33:17.952Z,99972.00
2019-03-08T02:35:47.475Z,99975.00
2019-03-08T02:38:16.985Z,99979.00
2019-03-08T02:40:46.525Z,99990.00
2019-03-08T02:43:18.103Z,99986.00
2019-03-08T02:45:47.727Z,100002.00
2019-03-08T02:48:17.203Z,99994.00
2019-03-08T02:50:46.930Z,99998.00
2019-03-08T02:53:16.628Z,100012.00
2019-03-08T02:55:46.103Z,100014.00
2019-03-08T02:58:15.544Z,100015.00
2019-03-08T03:00:45.711Z,100018.00
2019-03-08T03:03:15.681Z,100015.00
2019-03-08T03:05:45.375Z,100023.00
2019-03-08T03:08:14.796Z,100026.00
2019-03-08T03:10:44.369Z,100033.00
2019-03-08T03:13:13.979Z,100043.00
2019-03-08T03:15:43.507Z,100050.00
2019-03-08T03:18:13.118Z,100053.00
2019-03-08T03:20:42.703Z,100053.00
2019-03-08T03:23:12.156Z,100057.00
2019-03-08T03:25:41.671Z,100068.00
2019-03-08T03:28:11.235Z,100079.00
2019-03-08T03:30:40.692Z,100083.00
2019-03-08T03:33:10.332Z,100076.00
2019-03-08T03:35:39.765Z,100080.00
2019-03-08T03:38:09.264Z,100095.00
2019-03-08T03:40:38.994Z,100098.00
2019-03-08T03:43:08.593Z,100092.00
2019-03-08T03:45:38.182Z,100112.00
2019-03-08T03:48:07.919Z,100113.00
2019-03-08T03:50:37.380Z,100115.00
2019-03-08T03:53:06.834Z,100118.00
2019-03-08T03:55:36.378Z,100121.00
2019-03-08T03:58:05.809Z,100132.00
2019-03-08T04:00:35.337Z,100135.00
2019-03-08T04:03:05.026Z,100141.00
2019-03-08T04:05:34.638Z,100147.00
2019-03-08T04:08:04.245Z,100145.00
2019-03-08T04:10:33.733Z,100159.00
2019-03-08T04:13:03.196Z,100159.00
2019-03-08T04:15:32.849Z,100154.00
2019-03-08T04:18:02.348Z,100156.00
2019-03-08T04:20:31.864Z,100155.00
2019-03-08T04:23:01.300Z,100166.00
2019-03-08T04:25:30.941Z,100176.00
2019-03-08T04:28:00.526Z,100179.00
2019-03-08T04:30:30.039Z,100167.00
2019-03-08T04:32:59.528Z,100182.00
2019-03-08T04:35:29.085Z,100195.00
2019-03-08T04:37:58.539Z,100194.00
2019-03-08T04:40:28.072Z,100193.00
2019-03-08T04:42:57.778Z,100207.00
2019-03-08T04:45:27.228Z,100204.00
2019-03-08T04:47:56.738Z,100211.00
2019-03-08T04:50:26.194Z,100208.00
2019-03-08T04:52:55.637Z,100211.00
2019-03-08T04:55:25.148Z,100223.00
2019-03-08T04:57:54.679Z,100236.00
2019-03-08T05:00:24.243Z,100242.00
2019-03-08T05:02:53.719Z,100240.00
2019-03-08T05:05:23.263Z,100242.00
2019-03-08T05:07:52.708Z,100245.00
2019-03-08T05:10:22.674Z,100253.00
2019-03-08T05:12:52.185Z,100261.00
2019-03-08T05:15:21.790Z,100266.00
2019-03-08T05:17:51.235Z,100269.00
2019-03-08T05:20:20.663Z,100269.00
2019-03-08T05:22:50.128Z,100277.00
2019-03-08T05:25:19.638Z,100285.00
2019-03-08T05:27:49.186Z,100292.00
2019-03-08T05:30:19.611Z,100295.00
2019-03-08T05:32:49.068Z,100298.00
2019-03-08T05:35:18.790Z,100311.00
2019-03-08T05:37:48.319Z,100319.00
2019-03-08T05:40:17.968Z,100323.00
2019-03-08T05:42:47.530Z,100335.00
2019-03-08T05:45:17.231Z,100341.00
2019-03-08T05:47:46.787Z,100349.00
2019-03-08T05:50:16.542Z,100354.00
2019-03-08T05:52:46.254Z,100364.00
2019-03-08T05:55:15.693Z,100368.00
2019-03-08T05:57:45.160Z,100375.00
2019-03-08T06:00:20.825Z,100376.00
2019-03-08T06:02:50.356Z,100382.00
2019-03-08T06:05:20.083Z,100393.00
2019-03-08T06:07:49.494Z,100400.00
2019-03-08T06:10:36.436Z,100410.00
2019-03-08T06:13:07.683Z,100415.00
2019-03-08T06:15:37.282Z,100428.00
2019-03-08T06:18:06.788Z,100439.00
2019-03-08T06:20:36.239Z,100446.00
2019-03-08T06:23:05.739Z,100450.00
2019-03-08T06:25:35.287Z,100455.00
2019-03-08T06:28:04.793Z,100467.00
2019-03-08T06:30:34.558Z,100476.00
2019-03-08T06:33:04.131Z,100480.00
2019-03-08T06:35:33.584Z,100482.00
2019-03-08T06:38:03.003Z,100495.00
2019-03-08T06:40:51.592Z,100498.00
2019-03-08T06:43:20.999Z,100504.00
2019-03-08T06:45:50.490Z,100509.00
2019-03-08T06:48:19.988Z,100518.00
2019-03-08T06:50:49.492Z,100525.00
2019-03-08T06:53:18.922Z,100528.00
2019-03-08T06:55:48.531Z,100543.00
2019-03-08T06:58:19.415Z,100547.00
2019-03-08T07:00:50.479Z,100556.00
2019-03-08T07:03:19.968Z,100577.00
2019-03-08T07:05:49.366Z,100587.00
2019-03-08T07:08:18.876Z,100590.00
2019-03-08T07:10:48.292Z,100590.00
2019-03-08T07:13:17.718Z,100591.00
2019-03-08T07:15:47.155Z,100606.00
2019-03-08T07:18:16.620Z,100594.00
2019-03-08T07:20:50.381Z,100612.00
2019-03-08T07:23:33.459Z,100622.00
2019-03-08T07:26:07.228Z,100632.00
2019-03-08T07:28:54.233Z,100638.00
2019-03-08T07:31:28.428Z,100639.00
2019-03-08T07:34:11.807Z,100651.00
2019-03-08T07:37:01.272Z,100653.00
2019-03-08T07:39:37.878Z,100655.00
2019-03-08T07:42:25.042Z,100660.00
2019-03-08T07:45:05.236Z,100667.00
2019-03-08T07:47:48.236Z,100677.00
2019-03-08T07:50:22.326Z,100682.00
2019-03-08T07:52:53.441Z,100684.00
2019-03-08T07:55:27.537Z,100695.00
2019-03-08T07:58:01.451Z,100696.00
2019-03-08T08:00:44.374Z,100695.00
2019-03-08T08:03:15.493Z,100712.00
2019-03-08T08:05:46.615Z,100708.00
2019-03-08T08:08:29.943Z,100724.00
2019-03-08T08:11:03.966Z,100728.00
2019-03-08T08:13:41.622Z,100728.00
2019-03-08T08:16:29.173Z,100732.00
2019-03-08T08:19:09.248Z,100746.00
2019-03-08T08:21:52.289Z,100744.00
2019-03-08T08:24:23.355Z,100746.00
2019-03-08T08:26:56.932Z,100760.00
2019-03-08T08:29:44.418Z,100764.00
2019-03-08T08:32:33.645Z,100766.00
2019-03-08T08:35:07.620Z,100782.00
2019-03-08T08:37:55.093Z,100782.00
2019-03-08T08:40:31.950Z,100777.00
2019-03-08T08:43:14.877Z,100784.00
2019-03-08T08:45:51.554Z,100796.00
2019-03-08T08:48:31.805Z,100797.00
2019-03-08T08:51:05.621Z,100801.00
2019-03-08T08:53:51.975Z,100810.00
2019-03-08T08:56:23.026Z,100812.00
2019-03-08T08:59:02.961Z,100811.00
2019-03-08T09:01:39.801Z,100816.00
2019-03-08T09:04:10.946Z,100816.00
2019-03-08T09:06:51.609Z,100822.00
2019-03-08T09:09:25.503Z,100825.00
2019-03-08T09:11:56.568Z,100820.00
2019-03-08T09:14:27.687Z,100836.00
2019-03-08T09:17:07.305Z,100850.00
2019-03-08T09:19:44.056Z,100848.00
2019-03-08T09:22:17.750Z,100864.00
2019-03-08T09:25:05.137Z,100861.00
2019-03-08T09:27:52.323Z,100860.00
2019-03-08T09:30:38.182Z,100859.00
2019-03-08T09:33:09.448Z,100866.00
2019-03-08T09:35:40.589Z,100868.00
2019-03-08T09:38:23.714Z,100865.00
2019-03-08T09:41:00.792Z,100865.00
2019-03-08T09:43:31.924Z,100879.00
2019-03-08T09:46:09.077Z,100875.00
2019-03-08T09:48:48.636Z,100876.00
2019-03-08T09:51:22.078Z,100888.00
2019-03-08T09:54:05.060Z,100893.00
2019-03-08T09:56:39.120Z,100880.00
2019-03-08T09:59:19.149Z,100899.00
2019-03-08T10:02:06.569Z,100902.00
2019-03-08T10:04:40.427Z,100916.00
2019-03-08T10:07:26.770Z,100916.00
2019-03-08T10:09:57.921Z,100916.00
2019-03-08T10:12:34.748Z,100927.00
2019-03-08T10:15:08.558Z,100936.00
2019-03-08T10:17:42.271Z,100939.00
2019-03-08T10:20:31.615Z,100934.00
2019-03-08T10:23:05.417Z,100941.00
2019-03-08T10:25:36.540Z,100951.00
2019-03-08T10:28:07.631Z,100939.00
2019-03-08T10:30:53.749Z,100944.00
2019-03-08T10:33:27.887Z,100956.00
2019-03-08T10:36:07.919Z,100956.00
2019-03-08T10:38:54.273Z,100967.00
2019-03-08T10:41:25.382Z,100964.00
2019-03-08T10:44:08.980Z,100973.00
2019-03-08T10:46:40.855Z,100970.00
2019-03-08T10:49:11.989Z,100971.00
2019-03-08T10:51:43.097Z,100986.00
2019-03-08T10:54:30.721Z,100985.00
2019-03-08T10:57:02.003Z,100987.00
2019-03-08T10:59:42.059Z,100989.00
2019-03-08T11:02:31.346Z,100995.00
2019-03-08T11:05:14.589Z,100995.00
2019-03-08T11:07:45.828Z,101014.00
2019-03-08T11:10:19.775Z,101027.00
2019-03-08T11:12:50.995Z,101021.00
2019-03-08T11:15:38.181Z,101022.00
2019-03-08T11:18:14.920Z,101035.00
2019-03-08T11:20:58.026Z,101034.00
2019-03-08T11:23:29.289Z,101030.00
2019-03-08T11:26:16.370Z,101037.00
2019-03-08T11:28:56.271Z,101022.00
2019-03-08T11:31:29.938Z,101025.00
2019-03-08T11:34:01.115Z,101016.00
2019-03-08T11:36:32.304Z,101017.00
2019-03-08T11:41:48.281Z,101019.00
2019-03-08T11:44:24.917Z,101027.00
2019-03-08T11:46:56.108Z,101030.00
2019-03-08T11:49:27.005Z,101032.00
2019-03-08T11:52:06.986Z,101050.00
2019-03-08T11:54:53.181Z,101049.00
2019-03-08T11:57:24.310Z,101047.00
2019-03-08T12:00:04.206Z,101051.00
2019-03-08T12:02:51.664Z,101042.00
2019-03-08T12:05:22.827Z,101047.00
2019-03-08T12:07:53.920Z,101052.00
2019-03-08T12:10:25.054Z,101044.00
2019-03-08T12:12:56.300Z,101048.00
2019-03-08T12:15:27.554Z,101049.00
2019-03-08T12:17:58.735Z,101055.00
2019-03-08T12:20:29.921Z,101052.00
2019-03-08T12:23:16.195Z,101048.00
2019-03-08T12:26:03.264Z,101041.00
2019-03-08T12:28:46.316Z,101056.00
2019-03-08T12:31:18.874Z,101051.00
2019-03-08T12:34:08.338Z,101045.00
2019-03-08T12:36:45.096Z,101051.00
2019-03-08T12:39:16.284Z,101052.00
2019-03-08T12:41:47.540Z,101045.00
2019-03-08T12:44:21.780Z,101044.00
2019-03-08T12:46:52.986Z,101049.00
2019-03-08T12:49:23.875Z,101050.00
2019-03-08T12:51:55.089Z,101052.00
2019-03-08T12:54:42.347Z,101052.00
2019-03-08T12:57:25.471Z,101045.00
2019-03-08T13:00:14.508Z,101052.00
2019-03-08T13:02:51.502Z,101049.00
2019-03-08T13:05:26.892Z,101047.00
2019-03-08T13:08:03.907Z,101061.00
2019-03-08T13:10:33.352Z,101056.00
2019-03-08T13:13:02.839Z,101045.00
2019-03-08T13:15:32.410Z,101049.00
2019-03-08T13:18:02.339Z,101057.00
2019-03-08T13:20:31.970Z,101052.00
2019-03-08T13:23:01.791Z,101043.00
2019-03-08T13:25:31.253Z,101048.00
2019-03-08T13:28:00.777Z,101046.00
2019-03-08T13:30:30.501Z,101041.00
2019-03-08T13:33:00.030Z,101042.00
2019-03-08T13:35:29.601Z,101044.00
2019-03-08T13:37:59.111Z,101050.00
2019-03-08T13:40:28.607Z,101037.00
2019-03-08T13:42:58.211Z,101035.00
2019-03-08T13:45:27.768Z,101041.00
2019-03-08T13:47:57.368Z,101040.00
2019-03-08T13:50:26.868Z,101038.00
2019-03-08T13:52:56.357Z,101046.00
2019-03-08T13:55:25.834Z,101046.00
2019-03-08T13:57:55.313Z,101039.00
2019-03-08T14:00:24.853Z,101041.00
2019-03-08T14:02:54.287Z,101038.00
2019-03-08T14:05:23.842Z,101042.00
2019-03-08T14:07:53.327Z,101039.00
2019-03-08T14:10:23.972Z,101042.00
2019-03-08T14:12:53.437Z,101049.00
2019-03-08T14:15:23.084Z,101043.00
2019-03-08T14:17:52.802Z,101035.00
2019-03-08T14:20:27.672Z,101039.00
2019-03-08T14:22:57.138Z,101036.00
2019-03-08T14:25:26.751Z,101050.00
2019-03-08T14:27:56.313Z,101045.00
2019-03-08T14:30:27.830Z,101045.00
2019-03-08T14:32:57.892Z,101042.00
2019-03-08T14:35:29.650Z,101048.00
2019-03-08T14:37:59.991Z,101045.00
2019-03-08T14:40:34.073Z,101045.00
2019-03-08T14:43:08.272Z,101048.00
2019-03-08T14:45:40.397Z,101055.00
2019-03-08T14:48:11.085Z,101057.00
2019-03-08T14:50:40.795Z,101052.00
2019-03-08T14:53:10.304Z,101058.00
2019-03-08T14:55:40.100Z,101058.00
2019-03-08T14:58:09.590Z,101060.00
2019-03-08T15:00:39.175Z,101070.00
2019-03-08T15:03:08.810Z,101065.00
2019-03-08T15:05:38.338Z,101064.00
2019-03-08T15:08:07.837Z,101068.00
2019-03-08T15:10:39.733Z,101064.00
2019-03-08T15:13:08.563Z,101063.00
2019-03-08T15:15:38.014Z,101057.00
2019-03-08T15:18:07.634Z,101067.00
2019-03-08T15:20:37.902Z,101066.00
2019-03-08T15:23:07.663Z,101056.00
2019-03-08T15:25:37.190Z,101059.00
2019-03-08T15:28:06.697Z,101065.00
2019-03-08T15:30:36.303Z,101067.00
2019-03-08T15:33:05.934Z,101059.00
2019-03-08T15:35:35.414Z,101066.00
2019-03-08T15:38:05.038Z,101065.00
2019-03-08T15:40:34.610Z,101056.00
2019-03-08T15:43:04.401Z,101060.00
2019-03-08T15:45:33.982Z,101057.00
2019-03-08T15:48:03.591Z,101060.00
2019-03-08T15:50:33.160Z,101055.00
2019-03-08T15:53:02.698Z,101046.00
2019-03-08T15:55:32.213Z,101049.00
2019-03-08T15:58:01.870Z,101048.00
2019-03-08T16:00:31.565Z,101047.00
2019-03-08T16:03:01.178Z,101041.00
2019-03-08T16:05:30.674Z,101039.00
2019-03-08T16:08:01.805Z,101031.00
2019-03-08T16:10:31.701Z,101025.00
2019-03-08T16:13:02.816Z,101030.00
2019-03-08T16:15:32.460Z,101020.00
2019-03-08T16:18:01.959Z,101021.00
2019-03-08T16:20:31.472Z,101011.00
2019-03-08T16:23:02.643Z,101011.00
2019-03-08T16:25:32.115Z,101004.00
2019-03-08T16:28:01.586Z,101003.00
2019-03-08T16:30:36.452Z,100997.00
2019-03-08T16:33:14.693Z,100996.00
2019-03-08T16:36:01.464Z,100986.00
2019-03-08T16:38:35.185Z,100988.00
2019-03-08T16:41:06.365Z,101001.00
2019-03-08T16:43:45.788Z,101002.00
2019-03-08T16:46:21.266Z,101008.00
2019-03-08T16:48:55.142Z,101009.00
2019-03-08T16:51:26.025Z,101005.00
2019-03-08T16:54:13.178Z,101006.00
2019-03-08T16:57:02.880Z,101011.00
2019-03-08T16:59:34.151Z,101016.00
2019-03-08T17:02:08.092Z,101013.00
2019-03-08T17:04:41.948Z,101022.00
2019-03-08T17:07:29.195Z,101024.00
2019-03-08T17:10:00.408Z,101018.00
2019-03-08T17:12:31.513Z,101025.00
2019-03-08T17:15:17.692Z,101025.00
2019-03-08T17:17:59.030Z,101028.00
2019-03-08T17:20:30.194Z,101026.00
2019-03-08T17:23:01.627Z,101028.00
2019-03-08T17:25:35.574Z,101024.00
2019-03-08T17:28:06.768Z,101022.00
2019-03-08T17:30:37.938Z,101026.00
2019-03-08T17:33:15.114Z,101024.00
2019-03-08T17:35:53.373Z,101020.00
2019-03-08T17:38:40.942Z,101020.00
2019-03-08T17:41:12.018Z,101017.00
2019-03-08T17:43:49.184Z,101004.00
2019-03-08T17:46:32.357Z,101011.00
2019-03-08T17:49:19.780Z,101022.00
2019-03-08T17:51:53.532Z,101016.00
2019-03-08T17:54:24.684Z,101018.00
2019-03-08T17:57:04.879Z,101034.00
2019-03-08T17:59:52.314Z,101027.00
2019-03-08T18:02:38.329Z,101036.00
2019-03-08T18:05:12.614Z,101033.00
2019-03-08T18:07:43.798Z,101031.00
2019-03-08T18:10:17.893Z,101025.00
2019-03-08T18:12:57.940Z,101019.00
2019-03-08T18:15:40.623Z,101018.00
2019-03-08T18:18:11.805Z,101018.00
2019-03-08T18:20:55.381Z,101012.00
2019-03-08T18:23:44.562Z,101007.00
2019-03-08T18:26:30.369Z,101010.00
2019-03-08T18:29:04.017Z,101021.00
2019-03-08T18:31:49.945Z,101013.00
2019-03-08T18:34:21.227Z,101014.00
2019-03-08T18:37:07.268Z,101011.00
2019-03-08T18:39:41.405Z,101019.00
2019-03-08T18:42:15.511Z,101010.00
2019-03-08T18:44:46.672Z,101010.00
2019-03-08T18:47:33.881Z,101004.00
2019-03-08T18:50:05.140Z,101005.00
2019-03-08T18:52:39.333Z,101006.00
2019-03-08T18:55:27.467Z,101008.00
2019-03-08T18:58:04.486Z,101013.00
2019-03-08T19:00:44.566Z,101010.00
2019-03-08T19:03:21.290Z,101007.00
2019-03-08T19:06:10.380Z,101006.00
2019-03-08T19:08:44.079Z,101007.00
2019-03-08T19:11:15.425Z,101002.00
2019-03-08T19:13:52.270Z,101000.00
2019-03-08T19:16:41.474Z,101002.00
2019-03-08T19:19:12.593Z,101000.00
2019-03-08T19:21:43.863Z,101005.00
2019-03-08T19:24:15.036Z,100995.00
2019-03-08T19:26:52.408Z,100992.00
2019-03-08T19:29:41.763Z,100997.00
2019-03-08T19:32:13.040Z,100994.00
2019-03-08T19:35:02.305Z,100994.00
2019-03-08T19:37:51.286Z,100987.00
2019-03-08T19:40:22.475Z,100983.00
2019-03-08T19:42:56.540Z,100977.00
2019-03-08T19:45:43.782Z,100967.00
2019-03-08T19:48:17.586Z,100973.00
2019-03-08T19:50:51.220Z,100974.00
2019-03-08T19:53:22.324Z,100966.00
2019-03-08T19:55:59.278Z,100969.00
2019-03-08T19:58:30.437Z,100971.00
2019-03-08T20:01:13.721Z,100956.00
2019-03-08T20:03:51.056Z,100960.00
2019-03-08T20:06:25.061Z,100957.00
2019-03-08T20:08:56.167Z,100948.00
2019-03-08T20:11:42.560Z,100957.00
2019-03-08T20:14:16.195Z,100952.00
2019-03-08T20:17:03.638Z,100939.00
2019-03-08T20:19:40.798Z,100941.00
2019-03-08T20:22:27.245Z,100940.00
2019-03-08T20:24:58.412Z,100932.00
2019-03-08T20:27:38.540Z,100928.00
2019-03-08T20:30:20.452Z,100925.00
2019-03-08T20:32:51.533Z,100922.00
2019-03-08T20:35:28.720Z,100918.00
2019-03-08T20:38:11.616Z,100914.00
2019-03-08T20:40:57.676Z,100908.00
2019-03-08T20:43:37.958Z,100902.00
2019-03-08T20:46:12.130Z,100902.00
2019-03-08T20:48:41.452Z,100896.00
2019-03-08T20:51:11.118Z,100897.00
2019-03-08T20:53:40.622Z,100890.00
2019-03-08T20:56:10.064Z,100890.00
2019-03-08T20:58:39.575Z,100885.00
2019-03-08T21:01:09.223Z,100890.00
2019-03-08T21:03:38.945Z,100884.00
2019-03-08T21:06:08.547Z,100875.00
2019-03-08T21:08:38.075Z,100882.00
2019-03-08T21:11:07.505Z,100877.00
2019-03-08T21:13:36.990Z,100863.00
2019-03-08T21:16:06.578Z,100866.00
2019-03-08T21:18:36.089Z,100853.00
2019-03-08T21:21:05.730Z,100856.00
2019-03-08T21:23:35.214Z,100860.00
2019-03-08T21:26:04.877Z,100853.00
2019-03-08T21:28:36.459Z,100866.00
2019-03-08T21:31:05.725Z,100870.00
2019-03-08T21:33:35.212Z,100867.00
2019-03-08T21:36:04.880Z,100865.00
2019-03-08T21:38:34.124Z,100862.00
2019-03-08T21:41:03.636Z,100853.00
2019-03-08T21:43:33.223Z,100848.00
2019-03-08T21:46:02.740Z,100847.00
2019-03-08T21:48:32.191Z,100844.00
2019-03-08T21:51:01.761Z,100835.00
2019-03-08T21:53:31.278Z,100848.00
2019-03-08T21:56:02.323Z,100830.00
2019-03-08T21:58:32.006Z,100820.00
2019-03-08T22:01:01.481Z,100818.00
2019-03-08T22:03:30.961Z,100824.00
2019-03-08T22:06:00.440Z,100821.00
2019-03-08T22:08:29.994Z,100815.00
2019-03-08T22:11:01.160Z,100815.00
2019-03-08T22:13:30.607Z,100809.00
2019-03-08T22:16:00.188Z,100797.00
2019-03-08T22:18:29.626Z,100797.00
2019-03-08T22:20:59.112Z,100786.00
2019-03-08T22:23:28.593Z,100778.00
2019-03-08T22:25:58.119Z,100780.00
2019-03-08T22:28:27.574Z,100759.00
2019-03-08T22:30:57.050Z,100756.00
2019-03-08T22:33:26.496Z,100751.00
2019-03-08T22:35:56.147Z,100750.00
2019-03-08T22:38:25.949Z,100750.00
2019-03-08T22:40:55.585Z,100736.00
2019-03-08T22:43:25.251Z,100737.00
2019-03-08T22:45:54.928Z,100735.00
2019-03-08T22:48:24.569Z,100734.00
2019-03-08T22:50:54.047Z,100729.00
2019-03-08T22:53:23.657Z,100727.00
2019-03-08T22:55:53.094Z,100724.00
2019-03-08T22:58:22.691Z,100709.00
2019-03-08T23:01:04.168Z,100713.00
2019-03-08T23:03:33.891Z,100702.00
2019-03-08T23:06:03.608Z,100697.00
2019-03-08T23:08:33.408Z,100692.00
2019-03-08T23:11:02.955Z,100687.00
2019-03-08T23:13:32.629Z,100674.00
2019-03-08T23:16:02.264Z,100677.00
2019-03-08T23:18:31.846Z,100669.00
2019-03-08T23:21:01.699Z,100659.00
2019-03-08T23:23:31.237Z,100645.00
2019-03-08T23:26:00.745Z,100644.00
2019-03-08T23:28:34.633Z,100639.00
2019-03-08T23:31:17.885Z,100629.00
2019-03-08T23:33:47.402Z,100623.00
2019-03-08T23:36:16.921Z,100620.00
2019-03-08T23:38:46.432Z,100615.00
2019-03-08T23:41:15.979Z,100624.00
2019-03-08T23:43:45.436Z,100617.00
2019-03-08T23:46:14.989Z,100622.00
2019-03-08T23:48:44.449Z,100620.00
2019-03-08T23:51:13.904Z,100617.00
2019-03-08T23:53:43.353Z,100609.00
2019-03-08T23:56:12.928Z,100614.00
2019-03-08T23:58:42.409Z,100612.00
